Time;durP1;ratioP1;P1;durP2;ratioP2;P2;SDS_P1;SDS_P2;PMS_P1;PMS_P2;Temp;Humidity;BMP_temperature;BMP_pressure;BME280_temperature;BME280_humidity;BME280_pressure;Samples;Min_cycle;Max_cycle;Signal;HPM_P1;HPM_P2
2021/03/01 00:01:01;;;;;;;38.00;13.47;;;5.40;98.30;;;;;;5203250;22;20442;-84
2021/03/01 00:03:04;;;;;;;42.47;14.17;;;5.40;98.30;;;;;;5205743;22;20464;-84
2021/03/01 00:05:08;;;;;;;31.57;12.87;;;5.30;98.30;;;;;;5207204;22;20451;-84
2021/03/01 00:07:11;;;;;;;29.47;12.50;;;5.30;98.30;;;;;;5216305;22;20663;-84
2021/03/01 00:09:13;;;;;;;39.65;14.45;;;5.30;98.30;;;;;;5215520;22;20437;-84
2021/03/01 00:11:15;;;;;;;34.55;13.27;;;5.30;98.30;;;;;;5214508;22;20199;-82
2021/03/01 00:13:19;;;;;;;30.97;12.97;;;5.30;98.30;;;;;;5202603;22;20284;-82
2021/03/01 00:15:23;;;;;;;32.10;12.37;;;5.30;98.30;;;;;;5203683;22;20455;-82
2021/03/01 00:17:25;;;;;;;40.33;14.10;;;5.30;98.30;;;;;;5194443;22;20451;-81
2021/03/01 00:19:27;;;;;;;32.40;13.63;;;5.30;98.30;;;;;;5202657;22;20459;-85
2021/03/01 00:21:29;;;;;;;84.53;17.87;;;5.40;98.30;;;;;;5203134;22;20447;-84
2021/03/01 00:23:31;;;;;;;41.47;15.40;;;5.50;98.30;;;;;;5194593;22;20488;-85
2021/03/01 00:25:33;;;;;;;37.37;14.00;;;5.50;98.30;;;;;;5203189;22;20453;-83
2021/03/01 00:27:36;;;;;;;31.73;13.33;;;5.50;98.30;;;;;;5194647;22;20511;-84
2021/03/01 00:29:39;;;;;;;32.40;14.90;;;5.50;98.30;;;;;;5201436;22;20449;-84
2021/03/01 00:31:42;;;;;;;28.77;12.80;;;5.60;98.30;;;;;;5202206;22;20540;-84
2021/03/01 00:33:44;;;;;;;32.40;12.53;;;5.70;98.30;;;;;;5202392;22;20450;-84
2021/03/01 00:35:46;;;;;;;32.93;13.30;;;5.90;98.30;;;;;;5195128;22;20778;-83
2021/03/01 00:37:48;;;;;;;23.70;11.00;;;5.90;98.30;;;;;;5195459;22;21029;-82
2021/03/01 00:39:50;;;;;;;25.60;12.73;;;5.90;98.30;;;;;;5195952;22;20432;-82
2021/03/01 00:41:52;;;;;;;30.57;12.20;;;6.00;98.30;;;;;;5210902;22;20466;-82
2021/03/01 00:43:54;;;;;;;30.40;12.83;;;6.00;98.30;;;;;;5203141;22;20496;-83
2021/03/01 00:45:57;;;;;;;24.77;12.17;;;6.00;98.30;;;;;;5195539;22;20540;-83
2021/03/01 00:47:59;;;;;;;24.73;12.33;;;5.90;98.30;;;;;;5203777;22;20773;-82
2021/03/01 00:50:01;;;;;;;27.43;12.83;;;6.00;98.30;;;;;;5193070;22;21066;-83
2021/03/01 00:52:03;;;;;;;28.03;11.67;;;6.00;98.30;;;;;;5202635;22;20450;-83
2021/03/01 00:54:05;;;;;;;24.07;12.70;;;6.00;98.30;;;;;;5202131;22;20505;-82
2021/03/01 00:56:07;;;;;;;35.50;13.00;;;6.10;98.30;;;;;;5193788;22;20743;-83
2021/03/01 00:58:09;;;;;;;31.43;14.27;;;6.20;98.30;;;;;;5201385;22;20454;-82
2021/03/01 01:00:14;;;;;;;28.33;11.80;;;6.10;98.30;;;;;;5193218;22;21071;-83
2021/03/01 01:02:17;;;;;;;23.20;12.13;;;6.10;98.30;;;;;;5203042;22;20446;-83
2021/03/01 01:04:19;;;;;;;26.00;12.30;;;6.00;98.30;;;;;;5202066;22;20945;-82
2021/03/01 01:06:21;;;;;;;32.20;13.53;;;6.00;98.30;;;;;;5202167;22;20565;-83
2021/03/01 01:08:24;;;;;;;30.90;11.53;;;6.00;98.30;;;;;;5192901;22;20505;-82
2021/03/01 01:10:26;;;;;;;22.20;10.20;;;6.00;98.30;;;;;;5201227;22;20450;-82
2021/03/01 01:12:28;;;;;;;29.27;11.53;;;6.10;98.30;;;;;;5201346;22;20462;-83
2021/03/01 01:14:30;;;;;;;22.07;10.60;;;6.00;98.30;;;;;;5202093;22;20496;-83
2021/03/01 01:16:33;;;;;;;22.27;11.03;;;6.00;98.30;;;;;;5193656;22;20512;-83
2021/03/01 01:18:36;;;;;;;23.87;10.13;;;5.90;98.30;;;;;;5192309;22;20437;-82
2021/03/01 01:20:38;;;;;;;25.33;11.90;;;6.00;98.30;;;;;;5200618;22;20454;-83
2021/03/01 01:22:40;;;;;;;22.10;10.33;;;6.00;98.30;;;;;;5201645;22;20537;-82
2021/03/01 01:24:42;;;;;;;17.73;10.47;;;6.10;98.30;;;;;;5201638;22;20495;-83
2021/03/01 01:26:44;;;;;;;20.37;10.53;;;6.20;98.30;;;;;;5201417;22;20505;-82
2021/03/01 01:28:47;;;;;;;23.40;10.37;;;6.10;98.30;;;;;;5192671;22;20820;-83
2021/03/01 01:30:49;;;;;;;22.97;10.33;;;6.10;98.30;;;;;;5201575;22;20508;-83
2021/03/01 01:32:51;;;;;;;26.13;11.40;;;6.20;98.30;;;;;;5203972;22;20476;-82
2021/03/01 01:34:54;;;;;;;24.83;11.40;;;6.10;98.30;;;;;;5204015;22;20837;-82
2021/03/01 01:36:56;;;;;;;23.17;11.60;;;6.10;98.30;;;;;;5195796;22;20508;-82
2021/03/01 01:38:58;;;;;;;24.77;11.60;;;6.20;98.30;;;;;;5194739;22;21001;-82
2021/03/01 01:41:00;;;;;;;26.87;11.43;;;6.20;98.30;;;;;;5204292;22;20526;-83
2021/03/01 01:43:02;;;;;;;22.50;11.13;;;6.20;98.30;;;;;;5204096;22;20451;-83
2021/03/01 01:45:07;;;;;;;22.23;10.30;;;6.20;98.30;;;;;;5203861;22;20469;-82
2021/03/01 01:47:09;;;;;;;21.57;11.17;;;6.20;98.30;;;;;;5196980;22;20454;-83
2021/03/01 01:49:12;;;;;;;18.63;10.00;;;6.10;98.30;;;;;;5205396;22;20761;-82
2021/03/01 01:51:14;;;;;;;20.87;10.53;;;5.90;98.30;;;;;;5195169;22;20448;-82
2021/03/01 01:53:16;;;;;;;23.23;11.80;;;5.90;98.30;;;;;;5202562;22;20425;-82
2021/03/01 01:55:19;;;;;;;25.73;11.17;;;5.80;98.30;;;;;;5203194;22;20482;-82
2021/03/01 01:57:23;;;;;;;22.73;10.57;;;5.80;98.30;;;;;;5203402;22;20499;-82
2021/03/01 01:59:25;;;;;;;19.40;10.87;;;5.70;98.30;;;;;;5202855;22;20421;-82
2021/03/01 02:01:27;;;;;;;22.30;10.43;;;5.70;98.30;;;;;;5194776;22;20450;-82
2021/03/01 02:03:40;;;;;;;18.53;10.13;;;5.70;98.30;;;;;;5193995;22;20460;-82
2021/03/01 02:05:43;;;;;;;73.87;33.00;;;5.80;98.30;;;;;;5193841;22;20817;-82
2021/03/01 02:07:55;;;;;;;43.53;24.03;;;6.00;98.30;;;;;;5194573;22;20455;-82
2021/03/01 02:10:04;;;;;;;62.57;33.07;;;6.10;98.30;;;;;;5193335;22;20553;-82
2021/03/01 02:12:12;;;;;;;66.70;32.33;;;6.10;98.30;;;;;;5202686;22;20452;-82
2021/03/01 02:14:22;;;;;;;29.47;14.53;;;6.20;98.30;;;;;;5202674;22;20442;-82
2021/03/01 02:16:30;;;;;;;23.83;10.90;;;6.20;98.30;;;;;;5202044;22;20428;-81
2021/03/01 02:18:32;;;;;;;19.03;10.70;;;6.20;98.30;;;;;;5194084;22;20947;-82
2021/03/01 02:20:34;;;;;;;20.50;11.43;;;6.20;98.30;;;;;;5202795;22;20505;-83
2021/03/01 02:22:37;;;;;;;28.17;15.43;;;6.10;98.30;;;;;;5204016;22;20524;-83
2021/03/01 02:24:44;;;;;;;68.10;35.97;;;6.10;98.30;;;;;;5204154;22;20447;-83
2021/03/01 02:26:48;;;;;;;117.27;50.70;;;6.00;98.30;;;;;;5203460;22;20444;-82
2021/03/01 02:28:53;;;;;;;40.03;20.50;;;6.10;98.30;;;;;;5202462;22;20528;-83
2021/03/01 02:30:58;;;;;;;25.57;12.90;;;6.20;98.30;;;;;;5204354;22;20461;-82
2021/03/01 02:33:06;;;;;;;27.03;11.23;;;6.10;98.30;;;;;;5193976;22;20493;-82
2021/03/01 02:35:09;;;;;;;29.67;11.00;;;6.10;98.30;;;;;;5202255;22;20465;-82
2021/03/01 02:37:16;;;;;;;37.63;19.67;;;6.20;98.30;;;;;;5191274;22;20454;-82
2021/03/01 02:39:23;;;;;;;113.43;57.70;;;6.10;98.30;;;;;;5202719;22;20915;-83
2021/03/01 02:41:27;;;;;;;77.67;37.90;;;6.20;98.30;;;;;;5203500;22;20447;-82
2021/03/01 02:43:30;;;;;;;108.53;50.93;;;6.20;98.30;;;;;;5202865;22;20864;-82
2021/03/01 02:45:33;;;;;;;37.57;18.93;;;6.30;98.30;;;;;;5211017;22;20413;-83
2021/03/01 02:47:36;;;;;;;28.90;14.07;;;6.30;98.30;;;;;;5196938;22;20454;-82
2021/03/01 02:49:40;;;;;;;20.70;9.90;;;6.30;98.30;;;;;;5203648;22;20446;-83
2021/03/01 02:51:44;;;;;;;17.83;9.80;;;6.30;98.30;;;;;;5198168;22;20912;-83
2021/03/01 02:53:47;;;;;;;19.17;10.40;;;6.20;98.30;;;;;;5197185;22;20454;-82
2021/03/01 02:55:51;;;;;;;15.60;9.53;;;6.20;98.30;;;;;;5193900;22;20451;-82
2021/03/01 02:57:56;;;;;;;21.70;10.07;;;6.30;98.30;;;;;;5193565;22;20489;-82
2021/03/01 02:59:59;;;;;;;17.80;9.67;;;6.30;98.30;;;;;;5193184;22;20458;-82
2021/03/01 03:02:02;;;;;;;16.93;9.77;;;6.30;98.30;;;;;;5193980;22;20985;-83
2021/03/01 03:04:05;;;;;;;18.47;9.20;;;6.30;98.30;;;;;;5193445;22;20451;-82
2021/03/01 03:06:13;;;;;;;64.50;29.80;;;6.30;98.30;;;;;;5193371;22;20491;-82
2021/03/01 03:08:16;;;;;;;90.60;44.57;;;6.30;98.30;;;;;;5193713;22;20428;-82
2021/03/01 03:10:19;;;;;;;71.67;34.53;;;6.30;98.30;;;;;;5202147;22;20479;-83
2021/03/01 03:12:24;;;;;;;73.30;32.53;;;6.20;98.30;;;;;;5193797;22;20433;-82
2021/03/01 03:14:29;;;;;;;30.23;14.23;;;6.20;98.30;;;;;;5193559;22;20455;-82
2021/03/01 03:16:32;;;;;;;24.30;10.30;;;6.20;98.30;;;;;;5202058;22;21004;-82
2021/03/01 03:18:34;;;;;;;19.40;9.70;;;6.20;98.30;;;;;;5192377;22;20459;-82
2021/03/01 03:20:36;;;;;;;16.23;9.27;;;6.20;98.30;;;;;;5201586;22;20944;-83
2021/03/01 03:22:40;;;;;;;16.83;8.67;;;6.20;98.30;;;;;;5200907;22;20525;-82
2021/03/01 03:24:42;;;;;;;12.03;7.60;;;6.20;98.30;;;;;;5191643;22;20450;-83
2021/03/01 03:26:44;;;;;;;14.90;8.17;;;6.20;98.30;;;;;;5191610;22;20462;-83
2021/03/01 03:28:47;;;;;;;17.57;8.63;;;6.30;98.30;;;;;;5203001;22;20442;-83
2021/03/01 03:30:49;;;;;;;64.33;35.13;;;6.30;98.30;;;;;;5193132;22;20454;-83
2021/03/01 03:32:52;;;;;;;56.63;28.20;;;6.30;98.30;;;;;;5201168;22;20451;-82
2021/03/01 03:34:54;;;;;;;20.40;11.13;;;6.30;98.30;;;;;;5201398;22;21286;-83
2021/03/01 03:37:04;;;;;;;15.10;8.53;;;6.30;98.30;;;;;;5201809;22;20447;-82
2021/03/01 03:39:09;;;;;;;16.30;9.40;;;6.20;98.30;;;;;;5192622;22;20457;-82
2021/03/01 03:41:14;;;;;;;15.67;9.50;;;6.10;98.30;;;;;;5201625;22;20428;-82
2021/03/01 03:43:16;;;;;;;51.83;25.60;;;6.10;98.30;;;;;;5194298;22;20451;-82
2021/03/01 03:45:21;;;;;;;59.33;29.30;;;6.20;98.30;;;;;;5194417;22;20481;-82
2021/03/01 03:47:23;;;;;;;67.53;31.30;;;6.20;98.30;;;;;;5202127;22;20505;-82
2021/03/01 03:49:28;;;;;;;21.17;11.70;;;6.20;98.30;;;;;;5192973;22;20447;-82
2021/03/01 03:51:32;;;;;;;16.87;8.80;;;6.20;98.30;;;;;;5194203;22;20461;-82
2021/03/01 03:53:39;;;;;;;14.40;7.90;;;6.10;98.30;;;;;;5202090;22;20449;-82
2021/03/01 03:55:45;;;;;;;15.77;8.97;;;6.10;98.30;;;;;;5203414;22;20711;-82
2021/03/01 03:57:52;;;;;;;13.40;8.17;;;6.10;98.30;;;;;;5201123;22;20476;-82
2021/03/01 03:59:56;;;;;;;12.50;7.63;;;6.00;98.30;;;;;;5190818;22;20946;-82
2021/03/01 04:01:59;;;;;;;15.77;8.60;;;6.10;98.30;;;;;;5199404;22;20962;-83
2021/03/01 04:04:05;;;;;;;14.50;7.83;;;6.10;98.30;;;;;;5191029;22;20454;-82
2021/03/01 04:06:07;;;;;;;14.27;8.17;;;6.10;98.30;;;;;;5200086;22;20503;-82
2021/03/01 04:08:14;;;;;;;12.03;6.80;;;6.10;98.30;;;;;;5191219;22;21229;-82
2021/03/01 04:10:16;;;;;;;13.20;8.13;;;6.10;98.30;;;;;;5198687;22;20541;-82
2021/03/01 04:12:19;;;;;;;19.40;9.43;;;6.10;98.30;;;;;;5200031;22;20451;-83
2021/03/01 04:14:24;;;;;;;17.97;8.23;;;6.10;98.30;;;;;;5192614;22;20490;-81
2021/03/01 04:16:27;;;;;;;13.73;7.40;;;6.10;98.30;;;;;;5193529;22;20473;-81
2021/03/01 04:18:35;;;;;;;12.07;7.23;;;6.10;98.30;;;;;;5192984;22;20463;-81
2021/03/01 04:20:38;;;;;;;15.83;7.07;;;6.20;98.30;;;;;;5201326;22;20442;-82
2021/03/01 04:22:42;;;;;;;16.90;7.90;;;6.20;98.30;;;;;;5194329;22;20482;-81
2021/03/01 04:24:46;;;;;;;16.70;7.93;;;6.10;98.30;;;;;;5193746;22;20926;-81
2021/03/01 04:26:49;;;;;;;15.27;8.00;;;6.00;98.30;;;;;;5202930;22;20501;-81
2021/03/01 04:28:52;;;;;;;17.60;8.50;;;6.10;98.30;;;;;;5202539;22;20449;-80
2021/03/01 04:30:58;;;;;;;14.53;7.77;;;6.20;98.30;;;;;;5209013;22;20523;-80
2021/03/01 04:33:02;;;;;;;15.73;9.00;;;6.20;98.30;;;;;;5215434;22;20453;-80
2021/03/01 04:35:07;;;;;;;17.73;9.47;;;6.20;98.30;;;;;;5216227;22;20413;-81
2021/03/01 04:37:09;;;;;;;16.43;10.20;;;6.30;98.30;;;;;;5208396;22;20427;-81
2021/03/01 04:39:12;;;;;;;17.07;9.37;;;6.30;98.30;;;;;;5194687;22;20455;-81
2021/03/01 04:41:17;;;;;;;17.50;9.20;;;6.40;98.30;;;;;;5194238;22;20432;-80
2021/03/01 04:43:21;;;;;;;16.13;8.10;;;6.30;98.30;;;;;;5194113;22;20435;-81
2021/03/01 04:45:24;;;;;;;15.47;9.23;;;6.30;98.30;;;;;;5194048;22;21092;-81
2021/03/01 04:47:26;;;;;;;19.10;10.50;;;6.30;98.30;;;;;;5201679;22;20416;-81
2021/03/01 04:49:29;;;;;;;13.00;8.20;;;6.30;98.30;;;;;;5193199;22;20755;-81
2021/03/01 04:51:32;;;;;;;14.30;8.70;;;6.40;98.30;;;;;;5193482;22;20477;-81
2021/03/01 04:53:35;;;;;;;19.33;10.20;;;6.40;98.30;;;;;;5203236;22;20446;-81
2021/03/01 04:55:39;;;;;;;16.27;9.73;;;6.40;98.30;;;;;;5192960;22;20437;-81
2021/03/01 04:57:43;;;;;;;17.97;9.50;;;6.30;98.30;;;;;;5193257;22;20433;-81
2021/03/01 04:59:47;;;;;;;15.10;9.23;;;6.30;98.30;;;;;;5200425;22;20481;-81
2021/03/01 05:01:50;;;;;;;21.97;12.60;;;6.30;98.30;;;;;;5192822;22;20454;-81
2021/03/01 05:03:53;;;;;;;20.77;10.10;;;6.30;98.30;;;;;;5192725;22;20463;-81
2021/03/01 05:05:58;;;;;;;26.40;12.00;;;6.30;98.30;;;;;;5192889;22;20421;-81
2021/03/01 05:08:06;;;;;;;21.50;10.23;;;6.30;98.30;;;;;;5201303;22;20486;-81
2021/03/01 05:10:10;;;;;;;16.90;9.13;;;6.30;98.30;;;;;;5192189;22;20432;-81
2021/03/01 05:12:12;;;;;;;18.43;9.60;;;6.20;98.30;;;;;;5192543;22;20475;-81
2021/03/01 05:14:14;;;;;;;15.13;8.27;;;6.10;98.30;;;;;;5192590;22;20474;-81
2021/03/01 05:16:16;;;;;;;18.20;10.17;;;6.10;98.30;;;;;;5192838;22;20459;-81
2021/03/01 05:18:19;;;;;;;12.30;7.77;;;6.20;98.30;;;;;;5201183;22;20462;-81
2021/03/01 05:20:21;;;;;;;16.53;7.70;;;6.10;98.30;;;;;;5201105;22;20457;-81
2021/03/01 05:22:23;;;;;;;13.87;8.10;;;6.10;98.30;;;;;;5192855;22;20450;-81
2021/03/01 05:24:26;;;;;;;16.47;8.70;;;6.00;98.30;;;;;;5201049;22;20460;-81
2021/03/01 05:26:28;;;;;;;12.57;7.70;;;6.00;98.30;;;;;;5192699;22;20931;-81
2021/03/01 05:28:30;;;;;;;15.50;8.37;;;6.00;98.30;;;;;;5202111;22;20442;-81
2021/03/01 05:30:32;;;;;;;14.57;8.10;;;6.10;98.30;;;;;;5200306;22;20452;-80
2021/03/01 05:32:35;;;;;;;16.10;8.17;;;6.00;98.30;;;;;;5192882;22;20479;-81
2021/03/01 05:34:37;;;;;;;14.30;8.07;;;6.10;98.30;;;;;;5193354;22;20509;-82
2021/03/01 05:36:39;;;;;;;15.33;7.90;;;6.00;98.30;;;;;;5193726;22;20454;-81
2021/03/01 05:38:41;;;;;;;16.50;8.90;;;6.00;98.30;;;;;;5202521;22;20552;-82
2021/03/01 05:40:47;;;;;;;13.33;7.33;;;6.00;98.30;;;;;;5192467;22;20963;-82
2021/03/01 05:42:50;;;;;;;11.87;7.33;;;6.00;98.30;;;;;;5201775;22;20477;-81
2021/03/01 05:44:53;;;;;;;14.97;7.67;;;6.00;98.30;;;;;;5193152;22;20516;-81
2021/03/01 05:46:56;;;;;;;11.63;7.83;;;5.90;98.30;;;;;;5193077;22;20961;-81
2021/03/01 05:48:59;;;;;;;12.83;7.50;;;5.90;98.30;;;;;;5191724;22;20854;-81
2021/03/01 05:51:03;;;;;;;11.17;7.73;;;5.80;98.30;;;;;;5191625;22;20436;-81
2021/03/01 05:53:09;;;;;;;11.50;7.73;;;5.80;98.30;;;;;;5191475;22;20481;-81
2021/03/01 05:55:11;;;;;;;16.50;7.60;;;5.80;98.30;;;;;;5200567;22;20447;-81
2021/03/01 05:57:15;;;;;;;12.10;7.60;;;5.80;98.30;;;;;;5200026;22;20458;-81
2021/03/01 05:59:19;;;;;;;47.73;27.73;;;5.80;98.30;;;;;;5198541;22;20476;-81
2021/03/01 06:01:24;;;;;;;50.67;26.23;;;5.80;98.30;;;;;;5192499;22;20828;-82
2021/03/01 06:03:28;;;;;;;93.70;48.60;;;5.90;98.30;;;;;;5191634;22;20904;-81
2021/03/01 06:05:32;;;;;;;49.07;26.43;;;5.90;98.30;;;;;;5192395;22;20457;-81
2021/03/01 06:07:38;;;;;;;22.63;12.47;;;5.90;98.30;;;;;;5192042;22;20520;-81
2021/03/01 06:09:40;;;;;;;17.43;8.10;;;6.00;98.30;;;;;;5191181;22;20474;-81
2021/03/01 06:11:42;;;;;;;177.57;81.13;;;5.90;98.30;;;;;;5192103;22;20488;-81
2021/03/01 06:13:45;;;;;;;99.60;45.57;;;5.90;98.30;;;;;;5201145;22;20454;-81
2021/03/01 06:15:48;;;;;;;112.83;57.07;;;5.90;98.30;;;;;;5192247;22;20457;-81
2021/03/01 06:18:08;;;;;;;45.77;25.23;;;5.90;98.30;;;;;;5202310;22;20445;-81
2021/03/01 06:20:10;;;;;;;21.07;10.60;;;6.00;98.30;;;;;;5192821;22;20499;-81
2021/03/01 06:22:13;;;;;;;13.77;8.20;;;6.00;98.30;;;;;;5202428;22;20447;-82
2021/03/01 06:24:15;;;;;;;14.30;8.47;;;6.10;98.30;;;;;;5193882;22;20534;-81
2021/03/01 06:26:28;;;;;;;12.50;8.00;;;6.00;98.30;;;;;;5193626;22;20746;-81
2021/03/01 06:28:30;;;;;;;13.80;7.90;;;6.00;98.30;;;;;;5193735;22;20453;-81
2021/03/01 06:30:34;;;;;;;13.43;7.10;;;6.10;98.30;;;;;;5192523;22;20455;-81
2021/03/01 06:33:01;;;;;;;14.73;7.80;;;6.00;98.30;;;;;;5194305;22;20933;-82
2021/03/01 06:35:24;;;;;;;11.20;6.97;;;6.00;98.30;;;;;;5203063;22;20439;-82
2021/03/01 06:37:27;;;;;;;11.23;6.93;;;6.00;98.30;;;;;;5202089;22;20449;-81
2021/03/01 06:39:32;;;;;;;14.30;8.60;;;5.90;98.30;;;;;;5201652;22;20517;-82
2021/03/01 06:41:34;;;;;;;33.60;18.90;;;5.80;98.30;;;;;;5201049;22;20545;-82
2021/03/01 06:43:36;;;;;;;31.57;16.93;;;5.90;98.30;;;;;;5201984;22;20985;-81
2021/03/01 06:45:39;;;;;;;30.43;18.10;;;5.90;98.30;;;;;;5201657;22;20437;-82
2021/03/01 06:47:50;;;;;;;22.83;13.37;;;6.00;98.30;;;;;;5192853;22;20453;-82
2021/03/01 06:49:52;;;;;;;15.10;9.70;;;6.00;98.30;;;;;;5201135;22;20446;-82
2021/03/01 06:51:55;;;;;;;16.53;7.77;;;5.90;98.30;;;;;;5201644;22;20450;-83
2021/03/01 06:54:00;;;;;;;14.00;8.43;;;5.80;98.30;;;;;;5201940;22;20451;-82
2021/03/01 06:56:05;;;;;;;13.27;6.93;;;5.80;98.30;;;;;;5193373;22;20489;-82
2021/03/01 06:58:16;;;;;;;13.60;7.33;;;5.70;98.30;;;;;;5201648;22;20469;-82
2021/03/01 07:00:24;;;;;;;15.23;9.23;;;5.70;98.30;;;;;;5192430;22;20506;-82
2021/03/01 07:02:36;;;;;;;14.57;8.27;;;5.70;98.30;;;;;;5201042;22;20449;-82
2021/03/01 07:04:39;;;;;;;12.40;7.30;;;5.70;98.30;;;;;;5202839;22;20449;-80
2021/03/01 07:06:42;;;;;;;12.77;8.00;;;5.60;98.30;;;;;;5202714;22;20465;-80
2021/03/01 07:08:48;;;;;;;14.60;7.40;;;5.60;98.30;;;;;;5203972;22;20444;-80
2021/03/01 07:10:54;;;;;;;22.03;12.97;;;5.50;98.30;;;;;;5195284;22;20631;-80
2021/03/01 07:12:56;;;;;;;150.40;74.90;;;5.50;98.30;;;;;;5204235;22;20957;-80
2021/03/01 07:15:00;;;;;;;72.33;36.17;;;5.50;98.30;;;;;;5202825;22;21011;-80
2021/03/01 07:17:02;;;;;;;33.83;15.10;;;5.60;98.30;;;;;;5202395;22;20459;-80
2021/03/01 07:19:05;;;;;;;19.83;9.97;;;5.60;98.30;;;;;;5200912;22;20466;-80
2021/03/01 07:21:10;;;;;;;16.63;9.80;;;5.70;98.30;;;;;;5194416;22;20454;-80
2021/03/01 07:23:12;;;;;;;13.50;7.90;;;5.70;98.30;;;;;;5194562;22;20477;-80
2021/03/01 07:25:14;;;;;;;16.20;9.17;;;5.70;98.30;;;;;;5203113;22;20742;-81
2021/03/01 07:27:18;;;;;;;13.90;9.40;;;5.80;98.30;;;;;;5204022;22;20458;-80
2021/03/01 07:29:21;;;;;;;17.10;8.00;;;5.80;98.30;;;;;;5203144;22;20458;-80
2021/03/01 07:31:25;;;;;;;16.20;8.00;;;5.80;98.30;;;;;;5194504;22;20486;-80
2021/03/01 07:33:30;;;;;;;16.60;8.47;;;5.70;98.30;;;;;;5202666;22;20450;-80
2021/03/01 07:35:32;;;;;;;15.93;9.47;;;5.60;98.30;;;;;;5196499;22;20457;-81
2021/03/01 07:37:36;;;;;;;16.67;8.70;;;5.60;98.30;;;;;;5203109;22;20508;-81
2021/03/01 07:39:39;;;;;;;16.90;8.77;;;5.60;98.30;;;;;;5195333;22;20454;-81
2021/03/01 07:41:42;;;;;;;17.60;9.23;;;5.70;98.30;;;;;;5197362;22;20466;-81
2021/03/01 07:43:45;;;;;;;15.23;7.43;;;5.70;98.30;;;;;;5203052;22;20530;-81
2021/03/01 07:45:48;;;;;;;15.13;8.17;;;5.60;98.30;;;;;;5202122;22;20474;-82
2021/03/01 07:47:53;;;;;;;16.97;8.00;;;5.60;98.30;;;;;;5201927;22;21097;-81
2021/03/01 07:49:57;;;;;;;23.63;9.20;;;5.50;98.30;;;;;;5192861;22;20480;-82
2021/03/01 07:51:59;;;;;;;15.20;8.83;;;5.60;98.30;;;;;;5193262;22;20461;-82
2021/03/01 07:54:01;;;;;;;17.10;10.13;;;5.60;98.30;;;;;;5192950;22;20853;-82
2021/03/01 07:56:45;;;;;;;30.83;16.10;;;5.70;98.30;;;;;;5201927;22;20446;-82
2021/03/01 07:58:55;;;;;;;30.63;13.90;;;5.70;98.30;;;;;;5192855;22;21343;-82
2021/03/01 08:01:13;;;;;;;21.87;9.97;;;5.80;98.30;;;;;;5192298;22;20450;-81
2021/03/01 08:03:34;;;;;;;13.47;9.23;;;5.80;98.30;;;;;;5199799;22;20450;-82
2021/03/01 08:05:37;;;;;;;17.83;8.97;;;5.90;98.30;;;;;;5200593;22;20443;-82
2021/03/01 08:07:41;;;;;;;18.57;9.37;;;5.80;98.30;;;;;;5200076;22;20504;-82
2021/03/01 08:09:49;;;;;;;17.47;8.60;;;5.80;98.30;;;;;;5199261;22;20450;-82
2021/03/01 08:11:51;;;;;;;20.40;8.70;;;5.90;98.30;;;;;;5200029;22;20444;-82
2021/03/01 08:13:54;;;;;;;14.33;8.77;;;5.90;98.30;;;;;;5190927;22;20454;-82
2021/03/01 08:16:17;;;;;;;17.03;7.87;;;6.00;98.30;;;;;;5200417;22;20567;-82
2021/03/01 08:18:19;;;;;;;20.10;9.70;;;6.00;98.30;;;;;;5201234;22;20436;-82
2021/03/01 08:20:52;;;;;;;16.63;9.30;;;6.00;98.30;;;;;;5192474;22;20455;-82
2021/03/01 08:23:35;;;;;;;14.40;8.10;;;5.80;98.30;;;;;;5201470;22;20557;-82
2021/03/01 08:25:56;;;;;;;19.97;9.27;;;5.70;98.30;;;;;;5193399;22;20430;-83
2021/03/01 08:27:58;;;;;;;97.57;51.83;;;5.70;98.30;;;;;;5201864;22;20500;-82
2021/03/01 08:30:20;;;;;;;115.43;55.23;;;5.70;98.30;;;;;;5200954;22;20971;-81
2021/03/01 08:32:23;;;;;;;20.97;12.07;;;5.70;98.30;;;;;;5193659;22;20425;-83
2021/03/01 08:34:35;;;;;;;17.70;9.47;;;5.70;98.30;;;;;;5202035;22;20816;-82
2021/03/01 08:36:43;;;;;;;17.20;8.17;;;5.60;98.30;;;;;;5193669;22;20461;-82
2021/03/01 08:38:50;;;;;;;14.53;7.60;;;5.80;98.30;;;;;;5202834;22;20421;-82
2021/03/01 08:40:55;;;;;;;13.17;7.87;;;5.90;98.30;;;;;;5194611;22;20477;-82
2021/03/01 08:42:59;;;;;;;15.70;8.30;;;5.80;98.30;;;;;;5202805;22;20735;-82
2021/03/01 08:45:01;;;;;;;18.00;8.93;;;5.70;98.30;;;;;;5209430;22;20446;-83
2021/03/01 08:47:04;;;;;;;49.80;25.33;;;5.80;98.30;;;;;;5212080;22;20474;-82
2021/03/01 08:49:07;;;;;;;116.00;57.70;;;5.90;98.30;;;;;;5203672;22;20435;-82
2021/03/01 08:51:28;;;;;;;27.80;13.47;;;5.90;98.30;;;;;;5212422;22;20413;-82
2021/03/01 08:53:31;;;;;;;13.83;8.40;;;5.90;98.30;;;;;;5211788;22;20442;-82
2021/03/01 08:55:35;;;;;;;13.93;7.87;;;5.90;98.30;;;;;;5204264;22;20479;-82
2021/03/01 08:57:56;;;;;;;12.93;8.00;;;5.70;98.30;;;;;;5212122;22;20462;-82
2021/03/01 09:00:07;;;;;;;13.70;7.30;;;5.60;98.30;;;;;;5194852;22;20992;-82
2021/03/01 09:02:09;;;;;;;13.27;8.10;;;5.40;98.30;;;;;;5192952;22;20512;-82
2021/03/01 09:04:17;;;;;;;11.43;7.80;;;5.30;98.30;;;;;;5205435;22;20475;-82
2021/03/01 09:06:21;;;;;;;13.47;7.53;;;5.30;98.30;;;;;;5194017;22;20453;-82
2021/03/01 09:08:29;;;;;;;14.27;8.50;;;5.30;98.30;;;;;;5203789;22;20478;-82
2021/03/01 09:10:35;;;;;;;15.77;8.97;;;5.30;98.30;;;;;;5201009;22;20420;-82
2021/03/01 09:12:38;;;;;;;14.27;7.70;;;5.30;98.30;;;;;;5202496;22;20448;-82
2021/03/01 09:14:40;;;;;;;14.10;7.67;;;5.30;98.30;;;;;;5201300;22;20877;-81
2021/03/01 09:16:43;;;;;;;14.83;7.77;;;5.40;98.30;;;;;;5201352;22;20516;-82
2021/03/01 09:18:47;;;;;;;18.93;8.73;;;5.50;98.30;;;;;;5192700;22;20473;-82
2021/03/01 09:20:55;;;;;;;15.50;7.83;;;5.60;98.30;;;;;;5202063;22;20460;-81
2021/03/01 09:22:57;;;;;;;14.63;8.47;;;5.50;98.30;;;;;;5192841;22;20449;-82
2021/03/01 09:24:59;;;;;;;15.83;7.63;;;5.40;98.30;;;;;;5200597;22;20537;-82
2021/03/01 09:27:01;;;;;;;14.57;8.20;;;5.60;98.30;;;;;;5200559;22;20450;-82
2021/03/01 09:29:06;;;;;;;13.50;7.80;;;5.70;98.30;;;;;;5199505;22;20846;-81
2021/03/01 09:31:10;;;;;;;13.80;8.83;;;5.80;98.30;;;;;;5192579;22;20457;-82
2021/03/01 09:33:27;;;;;;;13.27;7.90;;;5.90;98.30;;;;;;5200920;22;21005;-82
2021/03/01 09:35:32;;;;;;;14.93;8.37;;;6.10;98.30;;;;;;5201182;22;20447;-82
2021/03/01 09:37:38;;;;;;;21.97;11.90;;;6.20;98.30;;;;;;5202283;22;20469;-83
2021/03/01 09:39:44;;;;;;;40.13;20.47;;;6.20;98.30;;;;;;5192986;22;20461;-83
2021/03/01 09:41:47;;;;;;;32.43;17.80;;;6.20;98.30;;;;;;5201886;22;20470;-83
2021/03/01 09:43:51;;;;;;;30.07;16.97;;;6.10;98.30;;;;;;5193656;22;20454;-83
2021/03/01 09:45:53;;;;;;;25.77;14.73;;;6.20;98.30;;;;;;5194344;22;20557;-83
2021/03/01 09:47:56;;;;;;;26.53;10.40;;;6.50;98.30;;;;;;5203813;22;20451;-83
2021/03/01 09:49:59;;;;;;;18.10;9.60;;;6.40;98.30;;;;;;5204336;22;20860;-83
2021/03/01 09:52:01;;;;;;;57.53;28.00;;;6.30;98.30;;;;;;5205156;22;20417;-84
2021/03/01 09:54:06;;;;;;;128.33;66.07;;;6.10;98.30;;;;;;5197317;22;20461;-82
2021/03/01 09:56:08;;;;;;;20.70;11.70;;;6.10;98.30;;;;;;5205860;22;21290;-82
2021/03/01 09:58:28;;;;;;;17.10;8.77;;;6.00;98.30;;;;;;5197308;22;20510;-83
2021/03/01 10:00:31;;;;;;;15.70;8.80;;;5.90;98.30;;;;;;5196904;22;20533;-83
2021/03/01 10:02:33;;;;;;;20.03;9.80;;;6.00;98.30;;;;;;5197010;22;21078;-83
2021/03/01 10:04:35;;;;;;;14.30;9.10;;;6.10;98.30;;;;;;5206947;22;20416;-82
2021/03/01 10:06:47;;;;;;;22.23;9.43;;;6.10;98.30;;;;;;5209724;22;20439;-82
2021/03/01 10:08:49;;;;;;;14.67;8.70;;;6.20;98.30;;;;;;5209278;22;20540;-82
2021/03/01 10:10:53;;;;;;;14.67;8.43;;;6.30;98.30;;;;;;5208935;22;20447;-82
2021/03/01 10:12:55;;;;;;;19.60;9.40;;;6.40;98.30;;;;;;5199618;22;21003;-82
2021/03/01 10:14:58;;;;;;;17.83;8.27;;;6.50;98.30;;;;;;5204691;22;20438;-82
2021/03/01 10:17:14;;;;;;;39.80;21.63;;;6.40;98.30;;;;;;5202099;22;20450;-82
2021/03/01 10:19:17;;;;;;;123.93;62.73;;;6.50;98.30;;;;;;5203177;22;20461;-82
2021/03/01 10:21:31;;;;;;;19.87;12.10;;;6.50;98.30;;;;;;5203728;22;20425;-82
2021/03/01 10:23:38;;;;;;;17.13;8.83;;;6.50;98.30;;;;;;5203870;22;20469;-82
2021/03/01 10:25:42;;;;;;;17.30;10.30;;;6.50;98.30;;;;;;5203857;22;20412;-82
2021/03/01 10:27:45;;;;;;;13.60;8.63;;;6.70;98.30;;;;;;5203063;22;20447;-82
2021/03/01 10:29:51;;;;;;;21.23;8.70;;;6.80;98.30;;;;;;5193810;22;20457;-82
2021/03/01 10:31:53;;;;;;;64.73;37.20;;;6.80;98.30;;;;;;5202660;22;20449;-82
2021/03/01 10:34:00;;;;;;;93.80;50.47;;;6.80;98.30;;;;;;5203356;22;20537;-82
2021/03/01 10:36:10;;;;;;;21.53;13.67;;;6.90;98.30;;;;;;5194992;22;20451;-82
2021/03/01 10:38:12;;;;;;;16.80;9.40;;;7.00;98.30;;;;;;5203030;22;20441;-82
2021/03/01 10:40:24;;;;;;;16.63;8.90;;;7.10;98.30;;;;;;5202306;22;20428;-82
2021/03/01 10:42:28;;;;;;;16.23;9.67;;;7.40;98.30;;;;;;5202862;22;20945;-82
2021/03/01 10:44:33;;;;;;;17.53;8.60;;;7.80;98.30;;;;;;5203042;22;20421;-82